Greene, New York
Current Conditions -  °F | °C
As of 8:53 PM on Friday 31 Oct 2014 (Local Time) from KBGM Reporting Station
Overcast Overcast  
Wind Chill: 39°   Ceiling: 5500
Heat Index: 43°   Visibility: 10mi
Dew Point: 31°   Wind: 7mph
Humidity: 62%   Direction: 60°ENE
Pressure: 29.9"   Gusts: NA
Location:  42.33°N, 75.77°W
Report Text: KBGM 010053Z 06006KT 10SM OVC055 06/M01 A2990 RMK AO2 SLP139 T00611006
Loading
Personal Weather Stations






























Interactive Weather Map
Tropical Storm Tracking
New forecast layout! Learn more

10-Day Weather Forecast

Advertisements
Track Severe Weather on mobile